PWSweather.com
Personal Weather Stations
Station Observations
KPAEXPOR2
Wellington Estates, Export, PA 15632

Wellington EstatesExport, PA 15632

Lat: 40.446, Lon: -79.592

Elevation: 1286

Station Type: PWS1000-TD

http://www.westmorelandweather.com

Latest ConditionsUpdated 5:45:02 AM EST Friday, Nov 28, 2014
Currently Today's Max Today's Min Today's Average
Temperature 25.0°F-3.9°C 27.7°F-2.4°C 25.0°F-3.9°C 26.6°F-3.0°C
Dew Point 16.3°F-8.7°C 23.1°F-4.9°C 16.3°F-8.7°C 20.6°F-6.3°C
Winds 3.3 mph SW5.3 kmh SW 5.1 mph NE8.2 kmh NE - 3.7 mph 6.0 kmh
Wind Gusts 5.4 mph8.7 kmh 9.2 mph14.8 kmh - -
Humidity 69% 84% 69% 78%
Pressure 30.26 in1024.7 mb 30.26 in1024.7 mb 30.19 in1022.4 mb -
Hour Temp Dew Point Humidity Winds Wind Gusts Pressure Precip Precip Rate Daily Precip Total
05:45 AM 25.0°F-3.9°C 16.3°F-8.7°C 69% 3.3 mph SW5.3 kmh SW 5.4 mph8.7 kmh 30.26 in1024.7 mb 0.00 in0.0 mm 0.00 in/hr0.0 mm/hr 0.00 in0.0 mm
05:30 AM 25.1°F-3.8°C 16.8°F-8.4°C 70% 2.7 mph S4.3 kmh S 5.4 mph8.7 kmh 30.26 in1024.7 mb 0.00 in0.0 mm 0.00 in/hr0.0 mm/hr 0.00 in0.0 mm
05:15 AM 25.1°F-3.8°C 17.4°F-8.1°C 72% 3.6 mph S5.8 kmh S 5.4 mph8.7 kmh 30.25 in1024.4 mb 0.00 in0.0 mm 0.00 in/hr0.0 mm/hr 0.00 in0.0 mm
05:00 AM 25.3°F-3.7°C 16.9°F-8.4°C 70% 3.1 mph S5.0 kmh S 5.4 mph8.7 kmh 30.25 in1024.4 mb 0.00 in0.0 mm 0.00 in/hr0.0 mm/hr 0.00 in0.0 mm
04:45 AM 25.7°F-3.5°C 17.3°F-8.2°C 70% 4.2 mph SE6.8 kmh SE 7.6 mph12.2 kmh 30.25 in1024.4 mb 0.00 in0.0 mm 0.00 in/hr0.0 mm/hr 0.00 in0.0 mm
04:30 AM 25.9°F-3.4°C 19.1°F-7.2°C 75% 4.2 mph SE6.8 kmh SE 7.6 mph12.2 kmh 30.24 in1024.0 mb 0.00 in0.0 mm 0.00 in/hr0.0 mm/hr 0.00 in0.0 mm
04:15 AM 25.9°F-3.4°C 20.0°F-6.7°C 78% 3.4 mph S5.5 kmh S 4.5 mph7.2 kmh 30.23 in1023.7 mb 0.00 in0.0 mm 0.00 in/hr0.0 mm/hr 0.00 in0.0 mm
04:00 AM 26.0°F-3.3°C 20.5°F-6.4°C 79% 3.7 mph SW6.0 kmh SW 6.0 mph9.7 kmh 30.23 in1023.7 mb 0.00 in0.0 mm 0.00 in/hr0.0 mm/hr 0.00 in0.0 mm
03:45 AM 26.8°F-2.9°C 21.4°F-5.9°C 80% 5.1 mph NE8.2 kmh NE 7.6 mph12.2 kmh 30.22 in1023.4 mb 0.00 in0.0 mm 0.00 in/hr0.0 mm/hr 0.00 in0.0 mm
03:30 AM 26.9°F-2.8°C 21.6°F-5.8°C 80% 2.5 mph N4.0 kmh N 4.5 mph7.2 kmh 30.22 in1023.4 mb 0.00 in0.0 mm 0.00 in/hr0.0 mm/hr 0.00 in0.0 mm
03:15 AM 27.1°F-2.7°C 22.1°F-5.5°C 81% 2.8 mph N4.5 kmh N 4.5 mph7.2 kmh 30.22 in1023.4 mb 0.00 in0.0 mm 0.00 in/hr0.0 mm/hr 0.00 in0.0 mm
03:00 AM 26.9°F-2.8°C 21.9°F-5.6°C 81% 3.1 mph N5.0 kmh N 5.4 mph8.7 kmh 30.21 in1023.0 mb 0.00 in0.0 mm 0.00 in/hr0.0 mm/hr 0.00 in0.0 mm
02:45 AM 27.1°F-2.7°C 21.2°F-6.0°C 78% 4.8 mph N7.7 kmh N 6.9 mph11.1 kmh 30.22 in1023.4 mb 0.00 in0.0 mm 0.00 in/hr0.0 mm/hr 0.00 in0.0 mm
02:30 AM 27.3°F-2.6°C 21.1°F-6.1°C 77% 3.6 mph N5.8 kmh N 6.0 mph9.7 kmh 30.21 in1023.0 mb 0.00 in0.0 mm 0.00 in/hr0.0 mm/hr 0.00 in0.0 mm
02:15 AM 27.3°F-2.6°C 21.1°F-6.1°C 77% 3.6 mph N5.8 kmh N 6.9 mph11.1 kmh 30.20 in1022.7 mb 0.00 in0.0 mm 0.00 in/hr0.0 mm/hr 0.00 in0.0 mm
02:00 AM 27.3°F-2.6°C 21.4°F-5.9°C 78% 3.4 mph N5.5 kmh N 5.4 mph8.7 kmh 30.20 in1022.7 mb 0.00 in0.0 mm 0.00 in/hr0.0 mm/hr 0.00 in0.0 mm
01:45 AM 27.1°F-2.7°C 21.5°F-5.8°C 79% 4.1 mph N6.6 kmh N 9.2 mph14.8 kmh 30.19 in1022.4 mb 0.00 in0.0 mm 0.00 in/hr0.0 mm/hr 0.00 in0.0 mm
01:30 AM 27.1°F-2.7°C 21.5°F-5.8°C 79% 3.8 mph N6.1 kmh N 8.3 mph13.4 kmh 30.19 in1022.4 mb 0.00 in0.0 mm 0.00 in/hr0.0 mm/hr 0.00 in0.0 mm
01:15 AM 27.7°F-2.4°C 22.0°F-5.6°C 79% 2.8 mph N4.5 kmh N 5.4 mph8.7 kmh 30.19 in1022.4 mb 0.00 in0.0 mm 0.00 in/hr0.0 mm/hr 0.00 in0.0 mm
01:00 AM 27.5°F-2.5°C 22.4°F-5.3°C 81% 4.6 mph N7.4 kmh N 7.6 mph12.2 kmh 30.19 in1022.4 mb 0.00 in0.0 mm 0.00 in/hr0.0 mm/hr 0.00 in0.0 mm
12:45 AM 27.5°F-2.5°C 22.7°F-5.2°C 82% 2.8 mph N4.5 kmh N 5.4 mph8.7 kmh 30.19 in1022.4 mb 0.00 in0.0 mm 0.00 in/hr0.0 mm/hr 0.00 in0.0 mm
12:30 AM 27.3°F-2.6°C 22.8°F-5.1°C 83% 3.9 mph N6.3 kmh N 7.6 mph12.2 kmh 30.19 in1022.4 mb 0.00 in0.0 mm 0.00 in/hr0.0 mm/hr 0.00 in0.0 mm
12:15 AM 27.3°F-2.6°C 23.1°F-4.9°C 84% 4.1 mph N6.6 kmh N 6.9 mph11.1 kmh 30.20 in1022.7 mb 0.00 in0.0 mm 0.00 in/hr0.0 mm/hr 0.00 in0.0 mm
12:00 AM 26.9°F-2.8°C 22.8°F-5.1°C 84% 5.0 mph N8.0 kmh N 8.3 mph13.4 kmh 30.21 in1023.0 mb 0.00 in0.0 mm 0.00 in/hr0.0 mm/hr 0.00 in0.0 mm